Time,TemperatureF,DewpointF,PressureIn,WindDirection,WindDirectionDegrees,WindSpeedMPH,WindSpeedGustMPH,Humidity,HourlyPrecipIn,Conditions,Clouds,dailyrainin,SoftwareType,DateUTC
2013-03-11 00:02:00,44.0,23.0,-100.00,South,186,11.0,14.0,44,0.00,,,-99.99,,2013-03-11 06:02:00,
2013-03-11 00:11:00,43.0,24.0,-100.00,South,189,10.0,15.0,45,0.00,,,-99.99,,2013-03-11 06:11:00,
2013-03-11 00:22:00,43.0,24.0,-100.00,South,176,7.0,11.0,47,0.00,,,-99.99,,2013-03-11 06:22:00,
2013-03-11 00:32:00,43.0,24.0,-100.00,South,176,7.0,11.0,47,0.00,,,-99.99,,2013-03-11 06:32:00,
2013-03-11 00:42:00,43.0,24.0,-100.00,South,182,8.0,10.0,48,0.00,,,-99.99,,2013-03-11 06:42:00,
2013-03-11 00:53:00,43.0,25.0,-100.00,South,171,8.0,10.0,49,0.00,,,-99.99,,2013-03-11 06:53:00,
2013-03-11 01:01:00,43.0,25.0,-100.00,South,171,8.0,10.0,49,0.00,,,-99.99,,2013-03-11 07:01:00,
2013-03-11 01:12:00,43.0,25.0,-100.00,South,171,8.0,10.0,49,0.00,,,-99.99,,2013-03-11 07:12:00,
2013-03-11 01:21:00,43.0,25.0,-100.00,South,174,11.0,14.0,48,0.00,,,-99.99,,2013-03-11 07:21:00,
2013-03-11 01:32:00,43.0,25.0,-100.00,South,174,11.0,14.0,48,0.00,,,-99.99,,2013-03-11 07:32:00,
2013-03-11 01:42:00,43.0,24.0,-100.00,SSW,193,13.0,17.0,46,0.00,,,-99.99,,2013-03-11 07:42:00,
2013-03-11 01:52:00,43.0,25.0,-100.00,SSW,196,13.0,16.0,48,0.00,,,-99.99,,2013-03-11 07:52:00,
2013-03-11 02:02:00,43.0,25.0,-100.00,SSW,196,13.0,16.0,48,0.00,,,-99.99,,2013-03-11 08:02:00,
2013-03-11 02:12:00,43.0,24.0,-100.00,SSW,203,13.0,16.0,46,0.00,,,-99.99,,2013-03-11 08:12:00,
2013-03-11 02:22:00,42.0,25.0,-100.00,SSW,193,12.0,14.0,49,0.00,,,-99.99,,2013-03-11 08:22:00,
2013-03-11 02:32:00,42.0,25.0,-100.00,SSW,193,12.0,14.0,49,0.00,,,-99.99,,2013-03-11 08:32:00,
2013-03-11 02:42:00,41.0,26.0,-100.00,South,186,7.0,10.0,53,0.00,,,-99.99,,2013-03-11 08:42:00,
2013-03-11 02:52:00,42.0,25.0,-100.00,SSW,196,8.0,11.0,50,0.00,,,-99.99,,2013-03-11 08:52:00,
2013-03-11 03:01:00,42.0,25.0,-100.00,SSW,196,8.0,11.0,50,0.00,,,-99.99,,2013-03-11 09:01:00,
2013-03-11 03:12:00,42.0,24.0,-100.00,SSW,199,9.0,13.0,49,0.00,,,-99.99,,2013-03-11 09:12:00,
2013-03-11 03:22:00,41.0,25.0,-100.00,SW,219,9.0,10.0,52,0.00,,,-99.99,,2013-03-11 09:22:00,
2013-03-11 03:32:00,41.0,25.0,-100.00,SW,219,9.0,10.0,52,0.00,,,-99.99,,2013-03-11 09:32:00,
2013-03-11 03:42:00,42.0,25.0,-100.00,SSW,213,6.0,8.0,51,0.00,,,-99.99,,2013-03-11 09:42:00,
2013-03-11 03:52:00,41.0,24.0,-100.00,SSW,212,9.0,11.0,49,0.00,,,-99.99,,2013-03-11 09:52:00,
2013-03-11 04:02:00,41.0,24.0,-100.00,SSW,212,9.0,11.0,49,0.00,,,-99.99,,2013-03-11 10:02:00,
2013-03-11 04:12:00,39.0,26.0,-100.00,SSW,209,9.0,10.0,60,0.00,,,-99.99,,2013-03-11 10:12:00,
2013-03-11 04:21:00,40.0,25.0,-100.00,SW,215,9.0,13.0,53,0.00,,,-99.99,,2013-03-11 10:21:00,
2013-03-11 04:32:00,40.0,25.0,-100.00,SW,215,9.0,13.0,53,0.00,,,-99.99,,2013-03-11 10:32:00,
2013-03-11 04:41:00,39.0,26.0,-100.00,SSW,210,9.0,11.0,59,0.00,,,-99.99,,2013-03-11 10:41:00,
2013-03-11 04:52:00,38.0,26.0,-100.00,SSW,209,12.0,13.0,60,0.00,,,-99.99,,2013-03-11 10:52:00,
2013-03-11 05:01:00,38.0,26.0,-100.00,SSW,209,12.0,13.0,60,0.00,,,-99.99,,2013-03-11 11:01:00,
2013-03-11 05:11:00,39.0,26.0,-100.00,SW,215,12.0,14.0,60,0.00,,,-99.99,,2013-03-11 11:11:00,
2013-03-11 05:22:00,38.0,26.0,-100.00,SSW,213,11.0,13.0,61,0.00,,,-99.99,,2013-03-11 11:22:00,
2013-03-11 05:32:00,38.0,26.0,-100.00,SSW,213,11.0,13.0,61,0.00,,,-99.99,,2013-03-11 11:32:00,
2013-03-11 05:42:00,38.0,26.0,-100.00,SSW,213,11.0,13.0,61,0.00,,,-99.99,,2013-03-11 11:42:00,
2013-03-11 05:53:00,35.0,28.0,-100.00,South,188,8.0,10.0,75,0.00,,,-99.99,,2013-03-11 11:53:00,
2013-03-11 06:01:00,35.0,28.0,-100.00,South,188,8.0,10.0,75,0.00,,,-99.99,,2013-03-11 12:01:00,
2013-03-11 06:12:00,36.0,28.0,-100.00,South,186,7.0,8.0,70,0.00,,,-99.99,,2013-03-11 12:12:00,
2013-03-11 06:22:00,36.0,28.0,-100.00,SSE,167,6.0,7.0,74,0.00,,,-99.99,,2013-03-11 12:22:00,
2013-03-11 06:32:00,36.0,28.0,-100.00,SSE,167,6.0,7.0,74,0.00,,,-99.99,,2013-03-11 12:32:00,
2013-03-11 06:42:00,37.0,27.0,-100.00,SSW,208,6.0,7.0,68,0.00,,,-99.99,,2013-03-11 12:42:00,
2013-03-11 06:53:00,37.0,27.0,-100.00,SW,223,6.0,7.0,67,0.00,,,-99.99,,2013-03-11 12:53:00,
2013-03-11 07:01:00,37.0,27.0,-100.00,SW,223,6.0,7.0,67,0.00,,,-99.99,,2013-03-11 13:01:00,
2013-03-11 07:12:00,39.0,27.0,-100.00,SW,216,9.0,10.0,61,0.00,,,-99.99,,2013-03-11 13:12:00,
2013-03-11 07:22:00,39.0,27.0,-100.00,SSW,213,6.0,8.0,61,0.00,,,-99.99,,2013-03-11 13:22:00,
2013-03-11 07:32:00,39.0,27.0,-100.00,SSW,213,6.0,8.0,61,0.00,,,-99.99,,2013-03-11 13:32:00,
2013-03-11 07:42:00,40.0,26.0,-100.00,SW,220,11.0,12.0,58,0.00,,,-99.99,,2013-03-11 13:42:00,
2013-03-11 07:52:00,39.0,27.0,-100.00,SSW,206,8.0,10.0,61,0.00,,,-99.99,,2013-03-11 13:52:00,
2013-03-11 08:01:00,39.0,27.0,-100.00,SSW,206,8.0,10.0,61,0.00,,,-99.99,,2013-03-11 14:01:00,
2013-03-11 08:12:00,40.0,26.0,-100.00,SW,217,10.0,13.0,58,0.00,,,-99.99,,2013-03-11 14:12:00,
2013-03-11 08:22:00,39.0,27.0,-100.00,SSW,213,7.0,10.0,61,0.00,,,-99.99,,2013-03-11 14:22:00,
2013-03-11 08:32:00,39.0,27.0,-100.00,SSW,213,7.0,10.0,61,0.00,,,-99.99,,2013-03-11 14:32:00,
2013-03-11 08:42:00,39.0,28.0,-100.00,SSW,210,8.0,10.0,64,0.00,,,-99.99,,2013-03-11 14:42:00,
2013-03-11 08:53:00,40.0,27.0,-100.00,SW,222,9.0,10.0,62,0.00,,,-99.99,,2013-03-11 14:53:00,
2013-03-11 09:02:00,40.0,27.0,-100.00,SW,222,9.0,10.0,62,0.00,,,-99.99,,2013-03-11 15:02:00,
2013-03-11 09:12:00,39.0,28.0,-100.00,SW,220,8.0,9.0,64,0.00,,,-99.99,,2013-03-11 15:12:00,
2013-03-11 09:22:00,40.0,27.0,-100.00,SW,219,8.0,11.0,59,0.00,,,-99.99,,2013-03-11 15:22:00,
2013-03-11 09:32:00,40.0,27.0,-100.00,SW,219,8.0,11.0,59,0.00,,,-99.99,,2013-03-11 15:32:00,
2013-03-11 09:42:00,40.0,28.0,-100.00,SW,222,10.0,12.0,62,0.00,,,-99.99,,2013-03-11 15:42:00,
2013-03-11 09:53:00,41.0,28.0,-100.00,SW,224,10.0,13.0,60,0.00,,,-99.99,,2013-03-11 15:53:00,
2013-03-11 10:02:00,41.0,28.0,-100.00,SW,224,10.0,13.0,60,0.00,,,-99.99,,2013-03-11 16:02:00,
2013-03-11 10:12:00,41.0,28.0,-100.00,SW,223,11.0,13.0,59,0.00,,,-99.99,,2013-03-11 16:12:00,
2013-03-11 10:22:00,42.0,28.0,-100.00,SW,226,10.0,13.0,58,0.00,,,-99.99,,2013-03-11 16:22:00,
2013-03-11 10:32:00,42.0,28.0,-100.00,SW,226,10.0,13.0,58,0.00,,,-99.99,,2013-03-11 16:32:00,
2013-03-11 10:42:00,43.0,30.0,-100.00,SW,227,13.0,16.0,59,0.00,,,-99.99,,2013-03-11 16:42:00,
2013-03-11 10:52:00,45.0,31.0,-100.00,SW,227,17.0,21.0,59,0.00,,,-99.99,,2013-03-11 16:52:00,
2013-03-11 11:02:00,45.0,31.0,-100.00,SW,227,17.0,21.0,59,0.00,,,-99.99,,2013-03-11 17:02:00,
2013-03-11 11:13:00,45.0,31.0,-100.00,SW,227,17.0,21.0,59,0.00,,,-99.99,,2013-03-11 17:13:00,
2013-03-11 11:24:00,46.0,33.0,-100.00,SW,227,19.0,23.0,61,0.00,,,-99.99,,2013-03-11 17:24:00,
2013-03-11 11:33:00,46.0,33.0,-100.00,SW,227,19.0,23.0,61,0.00,,,-99.99,,2013-03-11 17:33:00,
2013-03-11 11:42:00,46.0,33.0,-100.00,SW,234,24.0,31.0,61,0.00,,,-99.99,,2013-03-11 17:42:00,
2013-03-11 11:53:00,47.0,34.0,-100.00,SW,234,24.0,30.0,61,0.00,,,-99.99,,2013-03-11 17:53:00,
2013-03-11 12:01:00,47.0,34.0,-100.00,SW,234,24.0,30.0,61,0.00,,,-99.99,,2013-03-11 18:01:00,
2013-03-11 12:11:00,47.0,34.0,-100.00,SW,234,22.0,27.0,60,0.00,,,-99.99,,2013-03-11 18:11:00,
2013-03-11 12:22:00,49.0,36.0,-100.00,SW,234,21.0,27.0,61,0.00,,,-99.99,,2013-03-11 18:22:00,
2013-03-11 12:32:00,49.0,36.0,-100.00,SW,234,21.0,27.0,61,0.00,,,-99.99,,2013-03-11 18:32:00,
2013-03-11 12:42:00,49.0,36.0,-100.00,SW,224,24.0,27.0,61,0.00,,,-99.99,,2013-03-11 18:42:00,
2013-03-11 12:52:00,50.0,37.0,-100.00,SW,236,22.0,26.0,61,0.00,,,-99.99,,2013-03-11 18:52:00,
2013-03-11 13:02:00,50.0,37.0,-100.00,SW,236,22.0,26.0,61,0.00,,,-99.99,,2013-03-11 19:02:00,
2013-03-11 13:12:00,50.0,37.0,-100.00,SW,227,22.0,26.0,60,0.00,,,-99.99,,2013-03-11 19:12:00,
2013-03-11 13:22:00,51.0,36.0,-100.00,SW,233,23.0,29.0,57,0.00,,,-99.99,,2013-03-11 19:22:00,
2013-03-11 13:32:00,51.0,36.0,-100.00,SW,233,23.0,29.0,57,0.00,,,-99.99,,2013-03-11 19:32:00,
2013-03-11 13:42:00,52.0,36.0,-100.00,SW,230,22.0,27.0,55,0.00,,,-99.99,,2013-03-11 19:42:00,
2013-03-11 13:52:00,52.0,37.0,-100.00,SW,236,24.0,30.0,56,0.00,,,-99.99,,2013-03-11 19:52:00,
2013-03-11 14:02:00,52.0,37.0,-100.00,SW,236,24.0,30.0,56,0.00,,,-99.99,,2013-03-11 20:02:00,
2013-03-11 14:11:00,52.0,37.0,-100.00,SW,226,18.0,24.0,57,0.00,,,-99.99,,2013-03-11 20:11:00,
2013-03-11 14:22:00,53.0,37.0,-100.00,WSW,241,18.0,21.0,53,0.00,,,-99.99,,2013-03-11 20:22:00,
2013-03-11 14:32:00,53.0,37.0,-100.00,WSW,241,18.0,21.0,53,0.00,,,-99.99,,2013-03-11 20:32:00,
2013-03-11 14:42:00,52.0,37.0,-100.00,SW,229,17.0,21.0,58,0.00,,,-99.99,,2013-03-11 20:42:00,
2013-03-11 14:53:00,51.0,38.0,-100.00,WSW,240,14.0,16.0,60,0.00,,,-99.99,,2013-03-11 20:53:00,
2013-03-11 15:02:00,51.0,38.0,-100.00,WSW,240,14.0,16.0,60,0.00,,,-99.99,,2013-03-11 21:02:00,
2013-03-11 15:12:00,52.0,38.0,-100.00,WSW,243,17.0,22.0,59,0.00,,,-99.99,,2013-03-11 21:12:00,
2013-03-11 15:22:00,53.0,38.0,-100.00,WSW,243,16.0,19.0,56,0.00,,,-99.99,,2013-03-11 21:22:00,
2013-03-11 15:32:00,53.0,38.0,-100.00,WSW,243,16.0,19.0,56,0.00,,,-99.99,,2013-03-11 21:32:00,
2013-03-11 15:43:00,53.0,37.0,-100.00,SW,230,21.0,25.0,55,0.00,,,-99.99,,2013-03-11 21:43:00,
2013-03-11 15:53:00,52.0,38.0,-100.00,SW,222,21.0,25.0,58,0.00,,,-99.99,,2013-03-11 21:53:00,
2013-03-11 16:02:00,52.0,38.0,-100.00,SW,222,21.0,25.0,58,0.00,,,-99.99,,2013-03-11 22:02:00,
2013-03-11 16:12:00,52.0,38.0,-100.00,SW,224,20.0,25.0,57,0.00,,,-99.99,,2013-03-11 22:12:00,
2013-03-11 16:22:00,52.0,39.0,-100.00,WSW,246,15.0,19.0,60,0.00,,,-99.99,,2013-03-11 22:22:00,
2013-03-11 16:32:00,52.0,39.0,-100.00,WSW,246,15.0,19.0,60,0.00,,,-99.99,,2013-03-11 22:32:00,
2013-03-11 16:43:00,53.0,37.0,-100.00,WSW,239,21.0,23.0,55,0.00,,,-99.99,,2013-03-11 22:43:00,
2013-03-11 16:53:00,53.0,38.0,-100.00,WSW,241,19.0,23.0,57,0.00,,,-99.99,,2013-03-11 22:53:00,
2013-03-11 17:02:00,53.0,38.0,-100.00,WSW,241,19.0,23.0,57,0.00,,,-99.99,,2013-03-11 23:02:00,
2013-03-11 17:12:00,53.0,38.0,-100.00,WSW,247,21.0,24.0,55,0.00,,,-99.99,,2013-03-11 23:12:00,
2013-03-11 17:22:00,54.0,37.0,-100.00,WSW,240,21.0,24.0,52,0.00,,,-99.99,,2013-03-11 23:22:00,
2013-03-11 17:30:00,53.0,37.0,-100.00,WSW,243,18.0,22.0,54,0.00,,,-99.99,,2013-03-11 23:30:00,
2013-03-11 17:32:00,54.0,37.0,-100.00,WSW,240,21.0,24.0,52,0.00,,,-99.99,,2013-03-11 23:32:00,
2013-03-11 17:42:00,54.0,37.0,-100.00,WSW,240,21.0,24.0,52,0.00,,,-99.99,,2013-03-11 23:42:00,
2013-03-11 17:53:00,53.0,37.0,-100.00,WSW,243,18.0,22.0,54,0.00,,,-99.99,,2013-03-11 23:53:00,
2013-03-11 18:02:00,53.0,37.0,-100.00,WSW,243,18.0,22.0,54,0.00,,,-99.99,,2013-03-12 00:02:00,
2013-03-11 18:12:00,53.0,37.0,-100.00,WSW,243,18.0,22.0,54,0.00,,,-99.99,,2013-03-12 00:12:00,
2013-03-11 18:22:00,53.0,37.0,-100.00,WSW,243,18.0,22.0,54,0.00,,,-99.99,,2013-03-12 00:22:00,
2013-03-11 18:43:00,52.0,37.0,-100.00,SW,234,17.0,20.0,57,0.00,,,-99.99,,2013-03-12 00:43:00,
2013-03-11 18:53:00,50.0,38.0,-100.00,SW,226,18.0,20.0,62,0.00,,,-99.99,,2013-03-12 00:53:00,
2013-03-11 19:02:00,50.0,38.0,-100.00,SW,226,18.0,20.0,62,0.00,,,-99.99,,2013-03-12 01:02:00,
2013-03-11 19:11:00,50.0,37.0,-100.00,SW,224,17.0,20.0,61,0.00,,,-99.99,,2013-03-12 01:11:00,
2013-03-11 19:22:00,49.0,36.0,-100.00,SW,227,15.0,19.0,61,0.00,,,-99.99,,2013-03-12 01:22:00,
2013-03-11 19:32:00,49.0,36.0,-100.00,SW,227,15.0,19.0,61,0.00,,,-99.99,,2013-03-12 01:32:00,
2013-03-11 19:42:00,49.0,36.0,-100.00,SW,232,16.0,18.0,62,0.00,,,-99.99,,2013-03-12 01:42:00,
2013-03-11 19:52:00,48.0,36.0,-100.00,SW,229,16.0,20.0,63,0.00,,,-99.99,,2013-03-12 01:52:00,
2013-03-11 20:02:00,48.0,36.0,-100.00,SW,229,16.0,20.0,63,0.00,,,-99.99,,2013-03-12 02:02:00,
2013-03-11 20:12:00,47.0,37.0,-100.00,SW,220,14.0,16.0,68,0.00,,,-99.99,,2013-03-12 02:12:00,
2013-03-11 20:22:00,46.0,36.0,-100.00,SW,220,15.0,17.0,67,0.00,,,-99.99,,2013-03-12 02:22:00,
2013-03-11 20:32:00,46.0,36.0,-100.00,SW,220,15.0,17.0,67,0.00,,,-99.99,,2013-03-12 02:32:00,
2013-03-11 20:42:00,47.0,36.0,-100.00,SW,217,18.0,22.0,65,0.00,,,-99.99,,2013-03-12 02:42:00,
2013-03-11 20:52:00,46.0,35.0,-100.00,SW,215,16.0,18.0,66,0.00,,,-99.99,,2013-03-12 02:52:00,
2013-03-11 21:01:00,46.0,35.0,-100.00,SW,215,16.0,18.0,66,0.00,,,-99.99,,2013-03-12 03:01:00,
2013-03-11 21:12:00,46.0,35.0,-100.00,SW,217,16.0,21.0,65,0.00,,,-99.99,,2013-03-12 03:12:00,
2013-03-11 21:22:00,45.0,35.0,-100.00,SSW,213,15.0,19.0,67,0.00,,,-99.99,,2013-03-12 03:22:00,
2013-03-11 21:32:00,45.0,35.0,-100.00,SSW,213,15.0,19.0,67,0.00,,,-99.99,,2013-03-12 03:32:00,
2013-03-11 21:42:00,45.0,35.0,-100.00,SSW,212,13.0,17.0,70,0.00,,,-99.99,,2013-03-12 03:42:00,
2013-03-11 21:52:00,44.0,35.0,-100.00,SSW,212,13.0,16.0,70,0.00,,,-99.99,,2013-03-12 03:52:00,
2013-03-11 22:02:00,44.0,35.0,-100.00,SSW,212,13.0,16.0,70,0.00,,,-99.99,,2013-03-12 04:02:00,
2013-03-11 22:12:00,44.0,36.0,-100.00,SSW,213,13.0,15.0,72,0.00,,,-99.99,,2013-03-12 04:12:00,
2013-03-11 22:22:00,44.0,35.0,-100.00,SSW,213,13.0,17.0,71,0.00,,,-99.99,,2013-03-12 04:22:00,
2013-03-11 22:32:00,44.0,35.0,-100.00,SSW,213,13.0,17.0,71,0.00,,,-99.99,,2013-03-12 04:32:00,
2013-03-11 22:42:00,45.0,35.0,-100.00,SSW,213,14.0,17.0,68,0.00,,,-99.99,,2013-03-12 04:42:00,
2013-03-11 22:52:00,44.0,35.0,-100.00,SSW,213,14.0,18.0,70,0.00,,,-99.99,,2013-03-12 04:52:00,
2013-03-11 23:02:00,44.0,35.0,-100.00,SSW,213,14.0,18.0,70,0.00,,,-99.99,,2013-03-12 05:02:00,
2013-03-11 23:12:00,44.0,35.0,-100.00,SW,219,15.0,18.0,69,0.00,,,-99.99,,2013-03-12 05:12:00,
2013-03-11 23:21:00,44.0,34.0,-100.00,SW,223,16.0,21.0,69,0.00,,,-99.99,,2013-03-12 05:21:00,
2013-03-11 23:32:00,44.0,34.0,-100.00,SW,223,16.0,21.0,69,0.00,,,-99.99,,2013-03-12 05:32:00,
2013-03-11 23:42:00,43.0,34.0,-100.00,SW,219,15.0,19.0,70,0.00,,,-99.99,,2013-03-12 05:42:00,
2013-03-11 23:52:00,43.0,34.0,-100.00,SW,224,14.0,16.0,71,0.00,,,-99.99,,2013-03-12 05:52:00,